SVRX weather

Hacienda Río Yaza Airport
Zulia, Venezuela

Public forecast

Using degrees Celsius for public forecast. Weather courtesy of forecast.io.

METAR (pilot weather report)

Closest report is Alfonso López Pumarejo Airport, 54.6 nm (101.2 km) NW. Retrieved 2019/03/19 14:00 UTC (32 minutes ago):

SKVP 191400Z 07013KT 030V100 8000 FEW015 SCT200 29/20 A2995 RMK HZ

TAF (pilot weather forecast)

Forecast is more than 12 hours old.

Closest forecast is La Chinita International Airport, 64.7 nm (119.8 km) NE. Retrieved 2019/03/17 18:03 UTC (2 days ago):

TAF SVMC 170400Z 1718/1818 09003KT 9999 SCT016 BKN100 TX30/1812Z TN25//1706Z BECMG 1712/1716 03004KT 9999 SCT016 BKN100